sensor_id;sensor_type;location;lat;lon;timestamp;P1;durP1;ratioP1;P2;durP2;ratioP2
55210;SDS011;41082;52.822;6.666;2023-04-01T00:01:59;3.70;;;2.20;;
55210;SDS011;41082;52.822;6.666;2023-04-01T00:04:25;5.53;;;2.92;;
55210;SDS011;41082;52.822;6.666;2023-04-01T00:06:51;2.85;;;2.65;;
55210;SDS011;41082;52.822;6.666;2023-04-01T00:09:16;3.55;;;2.33;;
55210;SDS011;41082;52.822;6.666;2023-04-01T00:11:42;3.00;;;2.10;;
55210;SDS011;41082;52.822;6.666;2023-04-01T00:14:09;4.40;;;2.65;;
55210;SDS011;41082;52.822;6.666;2023-04-01T00:16:35;4.85;;;2.58;;
55210;SDS011;41082;52.822;6.666;2023-04-01T00:19:01;4.97;;;2.70;;
55210;SDS011;41082;52.822;6.666;2023-04-01T00:21:27;2.40;;;1.90;;
55210;SDS011;41082;52.822;6.666;2023-04-01T00:23:53;3.65;;;2.03;;
55210;SDS011;41082;52.822;6.666;2023-04-01T00:26:19;4.47;;;2.55;;
55210;SDS011;41082;52.822;6.666;2023-04-01T00:28:46;3.42;;;2.90;;
55210;SDS011;41082;52.822;6.666;2023-04-01T00:31:12;4.78;;;2.75;;
55210;SDS011;41082;52.822;6.666;2023-04-01T00:33:39;3.95;;;2.80;;
55210;SDS011;41082;52.822;6.666;2023-04-01T00:36:16;5.05;;;2.95;;
55210;SDS011;41082;52.822;6.666;2023-04-01T00:38:43;3.53;;;2.40;;
55210;SDS011;41082;52.822;6.666;2023-04-01T00:41:10;4.78;;;2.70;;
55210;SDS011;41082;52.822;6.666;2023-04-01T00:43:40;3.20;;;2.08;;
55210;SDS011;41082;52.822;6.666;2023-04-01T00:46:07;3.88;;;1.98;;
55210;SDS011;41082;52.822;6.666;2023-04-01T00:48:36;2.20;;;1.40;;
55210;SDS011;41082;52.822;6.666;2023-04-01T00:53:34;1.85;;;0.60;;
55210;SDS011;41082;52.822;6.666;2023-04-01T00:56:07;2.08;;;1.25;;
55210;SDS011;41082;52.822;6.666;2023-04-01T00:58:35;2.75;;;1.67;;
55210;SDS011;41082;52.822;6.666;2023-04-01T01:01:04;3.25;;;1.55;;
55210;SDS011;41082;52.822;6.666;2023-04-01T01:03:32;3.75;;;2.30;;
55210;SDS011;41082;52.822;6.666;2023-04-01T01:17:09;3.65;;;3.35;;
55210;SDS011;41082;52.822;6.666;2023-04-01T01:19:46;4.78;;;3.45;;
55210;SDS011;41082;52.822;6.666;2023-04-01T01:22:25;4.22;;;3.08;;
55210;SDS011;41082;52.822;6.666;2023-04-01T01:25:10;4.18;;;3.58;;
55210;SDS011;41082;52.822;6.666;2023-04-01T01:28:21;4.00;;;3.13;;
55210;SDS011;41082;52.822;6.666;2023-04-01T01:31:08;3.17;;;2.88;;
55210;SDS011;41082;52.822;6.666;2023-04-01T01:36:50;4.53;;;3.03;;
55210;SDS011;41082;52.822;6.666;2023-04-01T01:39:21;4.30;;;2.97;;
55210;SDS011;41082;52.822;6.666;2023-04-01T01:44:20;4.35;;;2.70;;
55210;SDS011;41082;52.822;6.666;2023-04-01T01:46:47;3.33;;;2.60;;
55210;SDS011;41082;52.822;6.666;2023-04-01T01:49:13;4.47;;;2.42;;
55210;SDS011;41082;52.822;6.666;2023-04-01T01:51:41;4.35;;;2.92;;
55210;SDS011;41082;52.822;6.666;2023-04-01T01:54:11;5.28;;;3.13;;
55210;SDS011;41082;52.822;6.666;2023-04-01T01:56:38;4.40;;;2.47;;
55210;SDS011;41082;52.822;6.666;2023-04-01T01:59:05;3.78;;;2.60;;
55210;SDS011;41082;52.822;6.666;2023-04-01T02:04:03;2.63;;;2.42;;
55210;SDS011;41082;52.822;6.666;2023-04-01T02:06:30;3.53;;;2.50;;
55210;SDS011;41082;52.822;6.666;2023-04-01T02:09:03;3.75;;;2.60;;
55210;SDS011;41082;52.822;6.666;2023-04-01T02:14:11;5.43;;;2.55;;
55210;SDS011;41082;52.822;6.666;2023-04-01T02:16:43;5.47;;;2.67;;
55210;SDS011;41082;52.822;6.666;2023-04-01T02:19:18;4.45;;;2.60;;
55210;SDS011;41082;52.822;6.666;2023-04-01T02:21:49;3.10;;;2.80;;
55210;SDS011;41082;52.822;6.666;2023-04-01T02:24:18;4.35;;;2.88;;
55210;SDS011;41082;52.822;6.666;2023-04-01T02:26:47;5.38;;;3.08;;
55210;SDS011;41082;52.822;6.666;2023-04-01T02:29:15;3.67;;;2.88;;
55210;SDS011;41082;52.822;6.666;2023-04-01T02:31:43;5.20;;;3.50;;
55210;SDS011;41082;52.822;6.666;2023-04-01T02:34:09;3.30;;;2.63;;
55210;SDS011;41082;52.822;6.666;2023-04-01T02:36:35;3.00;;;2.60;;
55210;SDS011;41082;52.822;6.666;2023-04-01T02:39:01;4.30;;;3.08;;
55210;SDS011;41082;52.822;6.666;2023-04-01T02:41:29;4.35;;;3.13;;
55210;SDS011;41082;52.822;6.666;2023-04-01T02:43:55;3.97;;;3.13;;
55210;SDS011;41082;52.822;6.666;2023-04-01T02:46:23;6.90;;;3.83;;
55210;SDS011;41082;52.822;6.666;2023-04-01T02:48:49;4.10;;;3.70;;
55210;SDS011;41082;52.822;6.666;2023-04-01T02:51:14;3.90;;;3.40;;
55210;SDS011;41082;52.822;6.666;2023-04-01T02:53:40;2.83;;;2.63;;
55210;SDS011;41082;52.822;6.666;2023-04-01T02:56:06;5.13;;;2.85;;
55210;SDS011;41082;52.822;6.666;2023-04-01T02:58:31;4.90;;;3.97;;
55210;SDS011;41082;52.822;6.666;2023-04-01T03:00:57;5.15;;;4.28;;
55210;SDS011;41082;52.822;6.666;2023-04-01T03:03:23;4.72;;;3.85;;
55210;SDS011;41082;52.822;6.666;2023-04-01T03:05:48;3.97;;;3.58;;
55210;SDS011;41082;52.822;6.666;2023-04-01T03:08:14;4.75;;;3.83;;
55210;SDS011;41082;52.822;6.666;2023-04-01T03:10:39;3.33;;;3.03;;
55210;SDS011;41082;52.822;6.666;2023-04-01T03:13:05;3.67;;;3.38;;
55210;SDS011;41082;52.822;6.666;2023-04-01T03:15:31;3.80;;;3.42;;
55210;SDS011;41082;52.822;6.666;2023-04-01T03:17:57;3.05;;;2.75;;
55210;SDS011;41082;52.822;6.666;2023-04-01T03:20:22;4.00;;;2.72;;
55210;SDS011;41082;52.822;6.666;2023-04-01T03:22:48;4.25;;;3.42;;
55210;SDS011;41082;52.822;6.666;2023-04-01T03:25:13;3.63;;;2.88;;
55210;SDS011;41082;52.822;6.666;2023-04-01T03:27:39;4.80;;;2.53;;
55210;SDS011;41082;52.822;6.666;2023-04-01T03:30:05;3.17;;;2.85;;
55210;SDS011;41082;52.822;6.666;2023-04-01T03:32:32;3.30;;;3.00;;
55210;SDS011;41082;52.822;6.666;2023-04-01T03:34:57;4.40;;;3.03;;
55210;SDS011;41082;52.822;6.666;2023-04-01T03:37:23;3.78;;;3.47;;
55210;SDS011;41082;52.822;6.666;2023-04-01T03:39:49;3.63;;;3.33;;
55210;SDS011;41082;52.822;6.666;2023-04-01T03:42:15;3.28;;;2.97;;
55210;SDS011;41082;52.822;6.666;2023-04-01T03:44:40;3.28;;;3.00;;
55210;SDS011;41082;52.822;6.666;2023-04-01T03:47:06;3.83;;;3.40;;
55210;SDS011;41082;52.822;6.666;2023-04-01T03:49:34;3.53;;;3.22;;
55210;SDS011;41082;52.822;6.666;2023-04-01T03:51:59;4.03;;;2.97;;
55210;SDS011;41082;52.822;6.666;2023-04-01T03:54:25;3.55;;;3.05;;
55210;SDS011;41082;52.822;6.666;2023-04-01T03:56:51;4.43;;;3.13;;
55210;SDS011;41082;52.822;6.666;2023-04-01T03:59:16;3.53;;;3.22;;
55210;SDS011;41082;52.822;6.666;2023-04-01T04:01:42;4.03;;;3.63;;
55210;SDS011;41082;52.822;6.666;2023-04-01T04:04:10;3.83;;;3.28;;
55210;SDS011;41082;52.822;6.666;2023-04-01T04:06:37;5.22;;;3.58;;
55210;SDS011;41082;52.822;6.666;2023-04-01T04:09:03;4.05;;;3.55;;
55210;SDS011;41082;52.822;6.666;2023-04-01T04:11:29;4.35;;;3.80;;
55210;SDS011;41082;52.822;6.666;2023-04-01T04:13:57;3.92;;;3.50;;
55210;SDS011;41082;52.822;6.666;2023-04-01T04:16:22;4.80;;;3.75;;
55210;SDS011;41082;52.822;6.666;2023-04-01T04:18:48;4.25;;;3.85;;
55210;SDS011;41082;52.822;6.666;2023-04-01T04:21:14;3.97;;;3.58;;
55210;SDS011;41082;52.822;6.666;2023-04-01T04:23:40;7.57;;;4.18;;
55210;SDS011;41082;52.822;6.666;2023-04-01T04:26:07;5.20;;;4.70;;
55210;SDS011;41082;52.822;6.666;2023-04-01T04:28:35;4.88;;;4.38;;
55210;SDS011;41082;52.822;6.666;2023-04-01T04:31:01;5.22;;;4.72;;
55210;SDS011;41082;52.822;6.666;2023-04-01T04:33:29;5.07;;;4.40;;
55210;SDS011;41082;52.822;6.666;2023-04-01T04:35:55;5.47;;;4.97;;
55210;SDS011;41082;52.822;6.666;2023-04-01T04:38:22;5.32;;;4.82;;
55210;SDS011;41082;52.822;6.666;2023-04-01T04:40:48;5.78;;;5.07;;
55210;SDS011;41082;52.822;6.666;2023-04-01T04:43:14;5.38;;;4.72;;
55210;SDS011;41082;52.822;6.666;2023-04-01T04:45:41;6.10;;;4.97;;
55210;SDS011;41082;52.822;6.666;2023-04-01T04:48:10;6.20;;;4.75;;
55210;SDS011;41082;52.822;6.666;2023-04-01T04:50:41;5.28;;;4.45;;
55210;SDS011;41082;52.822;6.666;2023-04-01T04:53:09;5.53;;;4.40;;
55210;SDS011;41082;52.822;6.666;2023-04-01T04:55:35;8.38;;;4.93;;
55210;SDS011;41082;52.822;6.666;2023-04-01T04:58:00;5.13;;;4.60;;
55210;SDS011;41082;52.822;6.666;2023-04-01T05:00:26;5.47;;;4.55;;
55210;SDS011;41082;52.822;6.666;2023-04-01T05:02:51;4.55;;;3.88;;
55210;SDS011;41082;52.822;6.666;2023-04-01T05:05:17;4.43;;;4.03;;
55210;SDS011;41082;52.822;6.666;2023-04-01T05:07:42;4.22;;;3.83;;
55210;SDS011;41082;52.822;6.666;2023-04-01T05:10:08;3.90;;;3.47;;
55210;SDS011;41082;52.822;6.666;2023-04-01T05:12:34;4.30;;;3.67;;
55210;SDS011;41082;52.822;6.666;2023-04-01T05:15:06;3.65;;;3.20;;
55210;SDS011;41082;52.822;6.666;2023-04-01T05:17:33;3.35;;;2.85;;
55210;SDS011;41082;52.822;6.666;2023-04-01T05:19:58;3.70;;;3.40;;
55210;SDS011;41082;52.822;6.666;2023-04-01T05:22:24;3.80;;;3.33;;
55210;SDS011;41082;52.822;6.666;2023-04-01T05:24:50;3.35;;;2.90;;
55210;SDS011;41082;52.822;6.666;2023-04-01T05:27:16;3.17;;;2.88;;
55210;SDS011;41082;52.822;6.666;2023-04-01T05:29:41;4.25;;;2.90;;
55210;SDS011;41082;52.822;6.666;2023-04-01T05:32:07;3.13;;;2.53;;
55210;SDS011;41082;52.822;6.666;2023-04-01T05:34:33;3.95;;;2.58;;
55210;SDS011;41082;52.822;6.666;2023-04-01T05:36:58;3.50;;;2.90;;
55210;SDS011;41082;52.822;6.666;2023-04-01T05:39:24;4.20;;;3.13;;
55210;SDS011;41082;52.822;6.666;2023-04-01T05:41:50;4.35;;;2.70;;
55210;SDS011;41082;52.822;6.666;2023-04-01T05:44:15;3.97;;;2.78;;
55210;SDS011;41082;52.822;6.666;2023-04-01T05:46:41;3.80;;;3.50;;
55210;SDS011;41082;52.822;6.666;2023-04-01T05:49:07;4.28;;;3.85;;
55210;SDS011;41082;52.822;6.666;2023-04-01T05:51:33;4.72;;;4.32;;
55210;SDS011;41082;52.822;6.666;2023-04-01T05:53:58;6.28;;;4.80;;
55210;SDS011;41082;52.822;6.666;2023-04-01T05:56:24;5.00;;;4.60;;
55210;SDS011;41082;52.822;6.666;2023-04-01T05:58:50;6.30;;;4.88;;
55210;SDS011;41082;52.822;6.666;2023-04-01T06:01:18;5.90;;;4.88;;
55210;SDS011;41082;52.822;6.666;2023-04-01T06:03:43;5.75;;;5.25;;
55210;SDS011;41082;52.822;6.666;2023-04-01T06:06:16;6.60;;;5.93;;
55210;SDS011;41082;52.822;6.666;2023-04-01T06:08:48;8.10;;;6.85;;
55210;SDS011;41082;52.822;6.666;2023-04-01T06:21:28;12.50;;;10.38;;
55210;SDS011;41082;52.822;6.666;2023-04-01T06:27:25;11.70;;;10.45;;
55210;SDS011;41082;52.822;6.666;2023-04-01T06:38:41;10.52;;;9.43;;
55210;SDS011;41082;52.822;6.666;2023-04-01T06:44:52;10.10;;;8.95;;
55210;SDS011;41082;52.822;6.666;2023-04-01T06:53:06;8.63;;;7.75;;
55210;SDS011;41082;52.822;6.666;2023-04-01T06:55:40;8.07;;;7.28;;
55210;SDS011;41082;52.822;6.666;2023-04-01T06:58:34;8.52;;;7.22;;
55210;SDS011;41082;52.822;6.666;2023-04-01T07:01:07;7.22;;;6.55;;
55210;SDS011;41082;52.822;6.666;2023-04-01T07:03:42;6.15;;;5.57;;
55210;SDS011;41082;52.822;6.666;2023-04-01T07:06:58;5.78;;;5.25;;
55210;SDS011;41082;52.822;6.666;2023-04-01T07:09:10;5.18;;;4.70;;
55210;SDS011;41082;52.822;6.666;2023-04-01T07:11:43;5.97;;;4.82;;
55210;SDS011;41082;52.822;6.666;2023-04-01T07:19:45;5.00;;;4.50;;
55210;SDS011;41082;52.822;6.666;2023-04-01T07:24:52;4.40;;;4.00;;
55210;SDS011;41082;52.822;6.666;2023-04-01T07:27:19;4.35;;;3.90;;
55210;SDS011;41082;52.822;6.666;2023-04-01T07:29:45;5.00;;;4.22;;
55210;SDS011;41082;52.822;6.666;2023-04-01T07:32:18;5.20;;;4.70;;
55210;SDS011;41082;52.822;6.666;2023-04-01T07:46:00;3.85;;;3.03;;
55210;SDS011;41082;52.822;6.666;2023-04-01T07:48:38;4.03;;;3.60;;
55210;SDS011;41082;52.822;6.666;2023-04-01T07:59:38;4.55;;;4.15;;
55210;SDS011;41082;52.822;6.666;2023-04-01T08:02:44;7.50;;;4.13;;
55210;SDS011;41082;52.822;6.666;2023-04-01T08:05:55;5.30;;;4.80;;
55210;SDS011;41082;52.822;6.666;2023-04-01T08:21:31;4.43;;;4.03;;
55210;SDS011;41082;52.822;6.666;2023-04-01T08:24:16;4.57;;;4.18;;
55210;SDS011;41082;52.822;6.666;2023-04-01T08:26:44;4.70;;;4.28;;
55210;SDS011;41082;52.822;6.666;2023-04-01T08:29:16;3.40;;;3.10;;
55210;SDS011;41082;52.822;6.666;2023-04-01T08:34:32;2.20;;;1.50;;
55210;SDS011;41082;52.822;6.666;2023-04-01T08:37:05;2.63;;;2.10;;
55210;SDS011;41082;52.822;6.666;2023-04-01T08:39:43;2.95;;;1.60;;
55210;SDS011;41082;52.822;6.666;2023-04-01T08:45:02;1.80;;;1.20;;
55210;SDS011;41082;52.822;6.666;2023-04-01T08:50:25;1.10;;;0.70;;
55210;SDS011;41082;52.822;6.666;2023-04-01T08:55:51;1.30;;;0.93;;
55210;SDS011;41082;52.822;6.666;2023-04-01T09:00:53;2.55;;;0.93;;
55210;SDS011;41082;52.822;6.666;2023-04-01T09:09:04;2.50;;;1.33;;
55210;SDS011;41082;52.822;6.666;2023-04-01T09:14:44;2.30;;;2.10;;
55210;SDS011;41082;52.822;6.666;2023-04-01T09:17:28;2.38;;;1.98;;
55210;SDS011;41082;52.822;6.666;2023-04-01T09:22:50;3.40;;;2.90;;
55210;SDS011;41082;52.822;6.666;2023-04-01T09:36:38;5.32;;;4.82;;
55210;SDS011;41082;52.822;6.666;2023-04-01T09:47:27;5.40;;;4.90;;
55210;SDS011;41082;52.822;6.666;2023-04-01T09:58:07;5.10;;;4.63;;
55210;SDS011;41082;52.822;6.666;2023-04-01T10:00:46;5.90;;;5.30;;
55210;SDS011;41082;52.822;6.666;2023-04-01T10:06:41;4.18;;;3.88;;
55210;SDS011;41082;52.822;6.666;2023-04-01T10:09:56;5.07;;;4.57;;
55210;SDS011;41082;52.822;6.666;2023-04-01T10:18:32;10.10;;;4.47;;
55210;SDS011;41082;52.822;6.666;2023-04-01T10:26:54;4.85;;;4.15;;
55210;SDS011;41082;52.822;6.666;2023-04-01T10:43:28;7.32;;;4.25;;
55210;SDS011;41082;52.822;6.666;2023-04-01T10:54:43;4.63;;;4.23;;
55210;SDS011;41082;52.822;6.666;2023-04-01T11:03:11;7.72;;;6.88;;
55210;SDS011;41082;52.822;6.666;2023-04-01T11:14:47;5.05;;;4.65;;
55210;SDS011;41082;52.822;6.666;2023-04-01T11:20:02;4.93;;;4.45;;
55210;SDS011;41082;52.822;6.666;2023-04-01T11:23:39;4.85;;;4.45;;
55210;SDS011;41082;52.822;6.666;2023-04-01T11:25:58;5.03;;;4.57;;
55210;SDS011;41082;52.822;6.666;2023-04-01T11:31:15;4.22;;;3.92;;
55210;SDS011;41082;52.822;6.666;2023-04-01T11:33:55;4.97;;;4.15;;
55210;SDS011;41082;52.822;6.666;2023-04-01T11:36:37;4.45;;;3.97;;
55210;SDS011;41082;52.822;6.666;2023-04-01T11:42:14;3.78;;;3.45;;
55210;SDS011;41082;52.822;6.666;2023-04-01T11:45:11;3.90;;;3.60;;
55210;SDS011;41082;52.822;6.666;2023-04-01T11:48:03;3.88;;;3.42;;
55210;SDS011;41082;52.822;6.666;2023-04-01T12:02:08;3.35;;;3.05;;
55210;SDS011;41082;52.822;6.666;2023-04-01T12:04:53;2.50;;;2.30;;
55210;SDS011;41082;52.822;6.666;2023-04-01T12:18:38;2.38;;;2.17;;
55210;SDS011;41082;52.822;6.666;2023-04-01T12:24:19;2.17;;;1.98;;
55210;SDS011;41082;52.822;6.666;2023-04-01T12:27:20;1.65;;;1.55;;
55210;SDS011;41082;52.822;6.666;2023-04-01T12:30:26;1.63;;;1.52;;
55210;SDS011;41082;52.822;6.666;2023-04-01T12:33:18;1.30;;;1.13;;
55210;SDS011;41082;52.822;6.666;2023-04-01T12:36:19;1.50;;;1.40;;
55210;SDS011;41082;52.822;6.666;2023-04-01T12:42:04;2.92;;;1.35;;
55210;SDS011;41082;52.822;6.666;2023-04-01T12:53:35;1.25;;;1.10;;
55210;SDS011;41082;52.822;6.666;2023-04-01T13:04:56;1.48;;;1.05;;
55210;SDS011;41082;52.822;6.666;2023-04-01T13:07:59;1.35;;;1.25;;
55210;SDS011;41082;52.822;6.666;2023-04-01T13:10:42;1.67;;;0.70;;
55210;SDS011;41082;52.822;6.666;2023-04-01T13:13:39;2.22;;;1.10;;
55210;SDS011;41082;52.822;6.666;2023-04-01T13:16:26;1.23;;;1.13;;
55210;SDS011;41082;52.822;6.666;2023-04-01T13:18:57;1.55;;;1.45;;
55210;SDS011;41082;52.822;6.666;2023-04-01T13:27:01;2.35;;;1.15;;
55210;SDS011;41082;52.822;6.666;2023-04-01T13:29:38;1.33;;;1.20;;
55210;SDS011;41082;52.822;6.666;2023-04-01T13:32:26;1.50;;;1.40;;
55210;SDS011;41082;52.822;6.666;2023-04-01T13:37:47;2.05;;;1.50;;
55210;SDS011;41082;52.822;6.666;2023-04-01T13:40:33;1.70;;;1.55;;
55210;SDS011;41082;52.822;6.666;2023-04-01T13:45:55;2.72;;;1.55;;
55210;SDS011;41082;52.822;6.666;2023-04-01T14:02:37;1.67;;;1.10;;
55210;SDS011;41082;52.822;6.666;2023-04-01T14:08:17;1.45;;;1.35;;
55210;SDS011;41082;52.822;6.666;2023-04-01T14:13:31;1.60;;;1.20;;
55210;SDS011;41082;52.822;6.666;2023-04-01T14:21:53;1.45;;;1.25;;
55210;SDS011;41082;52.822;6.666;2023-04-01T14:27:41;2.45;;;1.55;;
55210;SDS011;41082;52.822;6.666;2023-04-01T14:30:27;1.52;;;1.02;;
55210;SDS011;41082;52.822;6.666;2023-04-01T14:41:50;1.98;;;1.00;;
55210;SDS011;41082;52.822;6.666;2023-04-01T14:47:34;1.30;;;1.20;;
55210;SDS011;41082;52.822;6.666;2023-04-01T14:50:14;1.90;;;1.00;;
55210;SDS011;41082;52.822;6.666;2023-04-01T15:03:22;2.05;;;1.35;;
55210;SDS011;41082;52.822;6.666;2023-04-01T15:05:56;1.13;;;1.02;;
55210;SDS011;41082;52.822;6.666;2023-04-01T15:08:29;1.02;;;0.90;;
55210;SDS011;41082;52.822;6.666;2023-04-01T15:11:20;2.15;;;1.20;;
55210;SDS011;41082;52.822;6.666;2023-04-01T15:19:20;1.58;;;1.48;;
55210;SDS011;41082;52.822;6.666;2023-04-01T15:24:46;2.00;;;1.17;;
55210;SDS011;41082;52.822;6.666;2023-04-01T15:27:24;2.55;;;1.42;;
55210;SDS011;41082;52.822;6.666;2023-04-01T15:30:18;6.18;;;4.78;;
55210;SDS011;41082;52.822;6.666;2023-04-01T15:33:06;2.95;;;1.88;;
55210;SDS011;41082;52.822;6.666;2023-04-01T15:41:23;4.78;;;4.15;;
55210;SDS011;41082;52.822;6.666;2023-04-01T15:46:55;2.45;;;1.73;;
55210;SDS011;41082;52.822;6.666;2023-04-01T15:52:11;1.02;;;0.93;;
55210;SDS011;41082;52.822;6.666;2023-04-01T15:57:55;0.93;;;0.70;;
55210;SDS011;41082;52.822;6.666;2023-04-01T16:00:44;2.22;;;0.77;;
55210;SDS011;41082;52.822;6.666;2023-04-01T16:06:09;1.02;;;0.75;;
55210;SDS011;41082;52.822;6.666;2023-04-01T16:14:34;0.43;;;0.30;;
55210;SDS011;41082;52.822;6.666;2023-04-01T16:17:31;1.58;;;0.50;;
55210;SDS011;41082;52.822;6.666;2023-04-01T16:22:37;2.42;;;0.50;;
55210;SDS011;41082;52.822;6.666;2023-04-01T16:25:19;1.20;;;0.73;;
55210;SDS011;41082;52.822;6.666;2023-04-01T16:33:57;1.08;;;0.40;;
55210;SDS011;41082;52.822;6.666;2023-04-01T16:45:00;0.73;;;0.45;;
55210;SDS011;41082;52.822;6.666;2023-04-01T16:47:35;0.95;;;0.55;;
55210;SDS011;41082;52.822;6.666;2023-04-01T16:50:21;1.10;;;0.60;;
55210;SDS011;41082;52.822;6.666;2023-04-01T16:56:14;1.67;;;0.70;;
55210;SDS011;41082;52.822;6.666;2023-04-01T16:58:42;1.73;;;1.00;;
55210;SDS011;41082;52.822;6.666;2023-04-01T17:01:24;1.10;;;0.65;;
55210;SDS011;41082;52.822;6.666;2023-04-01T17:04:06;1.65;;;1.00;;
55210;SDS011;41082;52.822;6.666;2023-04-01T17:06:42;1.27;;;0.90;;
55210;SDS011;41082;52.822;6.666;2023-04-01T17:14:49;3.75;;;2.05;;
55210;SDS011;41082;52.822;6.666;2023-04-01T17:17:52;2.15;;;1.70;;
55210;SDS011;41082;52.822;6.666;2023-04-01T17:24:04;3.30;;;1.83;;
55210;SDS011;41082;52.822;6.666;2023-04-01T17:26:03;2.47;;;1.50;;
55210;SDS011;41082;52.822;6.666;2023-04-01T17:28:56;2.80;;;1.85;;
55210;SDS011;41082;52.822;6.666;2023-04-01T17:34:29;3.70;;;1.70;;
55210;SDS011;41082;52.822;6.666;2023-04-01T18:00:02;2.67;;;2.35;;
55210;SDS011;41082;52.822;6.666;2023-04-01T18:16:50;3.40;;;2.45;;
55210;SDS011;41082;52.822;6.666;2023-04-01T18:24:56;3.25;;;2.95;;
55210;SDS011;41082;52.822;6.666;2023-04-01T18:27:32;3.25;;;2.90;;
55210;SDS011;41082;52.822;6.666;2023-04-01T18:32:42;4.82;;;2.88;;
55210;SDS011;41082;52.822;6.666;2023-04-01T18:35:45;8.13;;;3.13;;
55210;SDS011;41082;52.822;6.666;2023-04-01T18:40:45;3.80;;;3.42;;
55210;SDS011;41082;52.822;6.666;2023-04-01T18:43:36;4.97;;;3.47;;
55210;SDS011;41082;52.822;6.666;2023-04-01T18:52:17;3.67;;;3.20;;
55210;SDS011;41082;52.822;6.666;2023-04-01T18:57:25;4.07;;;3.38;;
55210;SDS011;41082;52.822;6.666;2023-04-01T19:00:04;5.68;;;3.45;;
55210;SDS011;41082;52.822;6.666;2023-04-01T19:02:40;4.97;;;3.47;;
55210;SDS011;41082;52.822;6.666;2023-04-01T19:13:40;5.53;;;3.72;;
55210;SDS011;41082;52.822;6.666;2023-04-01T19:18:58;6.45;;;4.82;;
55210;SDS011;41082;52.822;6.666;2023-04-01T19:21:37;7.82;;;4.40;;
55210;SDS011;41082;52.822;6.666;2023-04-01T19:24:54;7.57;;;4.38;;
55210;SDS011;41082;52.822;6.666;2023-04-01T19:29:56;5.13;;;4.00;;
55210;SDS011;41082;52.822;6.666;2023-04-01T19:35:40;7.43;;;4.85;;
55210;SDS011;41082;52.822;6.666;2023-04-01T19:43:38;8.90;;;4.82;;
55210;SDS011;41082;52.822;6.666;2023-04-01T19:49:18;8.45;;;4.80;;
55210;SDS011;41082;52.822;6.666;2023-04-01T19:54:53;8.07;;;4.85;;
55210;SDS011;41082;52.822;6.666;2023-04-01T19:57:30;8.98;;;4.85;;
55210;SDS011;41082;52.822;6.666;2023-04-01T20:00:07;7.85;;;4.30;;
55210;SDS011;41082;52.822;6.666;2023-04-01T20:05:46;9.77;;;4.90;;
55210;SDS011;41082;52.822;6.666;2023-04-01T20:08:33;6.65;;;4.50;;
55210;SDS011;41082;52.822;6.666;2023-04-01T20:14:13;7.85;;;4.63;;
55210;SDS011;41082;52.822;6.666;2023-04-01T20:19:21;9.88;;;5.88;;
55210;SDS011;41082;52.822;6.666;2023-04-01T20:21:58;8.07;;;5.38;;
55210;SDS011;41082;52.822;6.666;2023-04-01T20:24:29;7.47;;;5.53;;
55210;SDS011;41082;52.822;6.666;2023-04-01T20:32:40;10.32;;;5.40;;
55210;SDS011;41082;52.822;6.666;2023-04-01T20:35:25;8.95;;;5.32;;
55210;SDS011;41082;52.822;6.666;2023-04-01T20:41:02;7.82;;;4.80;;
55210;SDS011;41082;52.822;6.666;2023-04-01T20:46:39;9.93;;;6.22;;
55210;SDS011;41082;52.822;6.666;2023-04-01T20:51:53;11.10;;;5.78;;
55210;SDS011;41082;52.822;6.666;2023-04-01T20:54:29;9.45;;;5.55;;
55210;SDS011;41082;52.822;6.666;2023-04-01T20:57:21;7.80;;;5.20;;
55210;SDS011;41082;52.822;6.666;2023-04-01T21:00:11;10.32;;;5.18;;
55210;SDS011;41082;52.822;6.666;2023-04-01T21:08:42;12.27;;;5.65;;
55210;SDS011;41082;52.822;6.666;2023-04-01T21:11:25;8.75;;;5.53;;
55210;SDS011;41082;52.822;6.666;2023-04-01T21:14:24;12.55;;;5.93;;
55210;SDS011;41082;52.822;6.666;2023-04-01T21:20:29;10.73;;;5.30;;
55210;SDS011;41082;52.822;6.666;2023-04-01T21:25:56;10.07;;;5.82;;
55210;SDS011;41082;52.822;6.666;2023-04-01T21:28:51;10.95;;;5.53;;
55210;SDS011;41082;52.822;6.666;2023-04-01T21:37:12;12.00;;;5.85;;
55210;SDS011;41082;52.822;6.666;2023-04-01T21:40:04;12.93;;;6.13;;
55210;SDS011;41082;52.822;6.666;2023-04-01T22:04:56;7.57;;;5.10;;
55210;SDS011;41082;52.822;6.666;2023-04-01T22:10:09;11.10;;;5.55;;
55210;SDS011;41082;52.822;6.666;2023-04-01T22:18:04;8.43;;;4.55;;
55210;SDS011;41082;52.822;6.666;2023-04-01T22:25:44;13.23;;;5.35;;
55210;SDS011;41082;52.822;6.666;2023-04-01T22:28:13;10.32;;;5.18;;
55210;SDS011;41082;52.822;6.666;2023-04-01T22:30:52;8.60;;;4.82;;
55210;SDS011;41082;52.822;6.666;2023-04-01T22:36:51;9.35;;;4.70;;
55210;SDS011;41082;52.822;6.666;2023-04-01T22:39:28;10.27;;;5.68;;
55210;SDS011;41082;52.822;6.666;2023-04-01T22:47:46;9.73;;;5.60;;
55210;SDS011;41082;52.822;6.666;2023-04-01T22:50:24;9.25;;;4.55;;
55210;SDS011;41082;52.822;6.666;2023-04-01T22:55:42;10.73;;;4.68;;
55210;SDS011;41082;52.822;6.666;2023-04-01T22:58:18;8.10;;;5.18;;
55210;SDS011;41082;52.822;6.666;2023-04-01T23:01:07;10.88;;;4.78;;
55210;SDS011;41082;52.822;6.666;2023-04-01T23:03:40;9.75;;;4.75;;
55210;SDS011;41082;52.822;6.666;2023-04-01T23:06:18;6.72;;;4.10;;
55210;SDS011;41082;52.822;6.666;2023-04-01T23:08:57;9.88;;;4.43;;
55210;SDS011;41082;52.822;6.666;2023-04-01T23:11:32;6.85;;;4.30;;
55210;SDS011;41082;52.822;6.666;2023-04-01T23:14:18;10.23;;;4.82;;
55210;SDS011;41082;52.822;6.666;2023-04-01T23:24:48;7.13;;;4.10;;
55210;SDS011;41082;52.822;6.666;2023-04-01T23:27:23;8.70;;;3.55;;
55210;SDS011;41082;52.822;6.666;2023-04-01T23:30:02;7.65;;;3.60;;
55210;SDS011;41082;52.822;6.666;2023-04-01T23:32:28;6.90;;;3.30;;
55210;SDS011;41082;52.822;6.666;2023-04-01T23:34:55;6.90;;;3.13;;
55210;SDS011;41082;52.822;6.666;2023-04-01T23:37:23;7.80;;;3.63;;
55210;SDS011;41082;52.822;6.666;2023-04-01T23:39:58;6.20;;;3.70;;
55210;SDS011;41082;52.822;6.666;2023-04-01T23:42:27;7.03;;;3.15;;
55210;SDS011;41082;52.822;6.666;2023-04-01T23:44:57;5.63;;;2.97;;
55210;SDS011;41082;52.822;6.666;2023-04-01T23:47:26;5.82;;;3.60;;
55210;SDS011;41082;52.822;6.666;2023-04-01T23:50:13;5.95;;;3.45;;
55210;SDS011;41082;52.822;6.666;2023-04-01T23:52:51;6.00;;;3.38;;
55210;SDS011;41082;52.822;6.666;2023-04-01T23:55:25;14.23;;;4.00;;
